Time;durP1;ratioP1;P1;durP2;ratioP2;P2;SDS_P1;SDS_P2;PMS_P1;PMS_P2;Temp;Humidity;BMP_temperature;BMP_pressure;BME280_temperature;BME280_humidity;BME280_pressure;Samples;Min_cycle;Max_cycle;Signal;HPM_P1;HPM_P2
2022/04/03 08:45:12;;;;;;;;;;;;;;;1.34;61.30;96827.97;4206540;27;10435;-63
2022/04/03 08:47:17;;;;;;;;;;;;;;;1.49;61.98;96836.25;4193405;28;6629;-61
2022/04/03 08:49:20;;;;;;;;;;;;;;;1.81;61.06;96830.75;4192492;28;5870;-61
2022/04/03 08:51:23;;;;;;;;;;;;;;;1.84;60.67;96830.50;4193052;28;5928;-61
2022/04/03 08:53:26;;;;;;;;;;;;;;;1.83;60.47;96853.13;4191129;28;5292;-61
2022/04/03 08:55:29;;;;;;;;;;;;;;;1.73;60.47;96845.31;4192506;28;6816;-61
2022/04/03 08:57:32;;;;;;;;;;;;;;;2.08;60.65;96849.13;4194362;28;5822;-61
2022/04/03 08:59:37;;;;;;;;;;;;;;;2.18;59.36;96849.94;4194175;28;5809;-61
2022/04/03 09:01:39;;;;;;;;;;;;;;;2.04;59.62;96855.59;4193438;28;5809;-61
2022/04/03 09:03:41;;;;;;;;;;;;;;;2.21;59.24;96852.25;4192262;28;5838;-62
2022/04/03 09:05:46;;;;;;;;;;;;;;;2.22;59.61;96859.13;4192841;28;6678;-61
2022/04/03 09:08:00;;;;;;;;;;;;;;;1.93;58.21;96851.34;4193233;28;5815;-62
2022/04/03 09:10:08;;;;;;;;;;;;;;;1.90;58.89;96861.19;4186121;28;5817;-61
2022/04/03 09:12:15;;;;;;;;;;;;;;;1.82;59.40;96855.88;4192445;28;5843;-61
2022/04/03 09:14:20;;;;;;;;;;;;;;;1.81;58.91;96847.19;4193669;28;5803;-61
2022/04/03 09:16:38;;;;;;;;;;;;;;;2.03;59.21;96857.34;4190448;28;5842;-62
2022/04/03 09:18:51;;;;;;;;;;;;;;;2.11;58.18;96848.03;4191185;28;5822;-62
2022/04/03 09:20:52;;;;;;;;;;;;;;;1.79;58.88;96854.34;4189197;28;6540;-62
2022/04/03 09:22:58;;;;;;;;;;;;;;;1.83;59.41;96853.13;4192828;28;5802;-62
2022/04/03 09:25:09;;;;;;;;;;;;;;;1.88;58.69;96857.91;4191057;28;5807;-62
2022/04/03 09:27:11;;;;;;;;;;;;;;;1.89;57.31;96856.94;4192658;28;5814;-62
2022/04/03 09:29:17;;;;;;;;;;;;;;;1.96;58.26;96863.28;4189211;28;5818;-62
2022/04/03 09:31:26;;;;;;;;;;;;;;;2.17;57.30;96856.13;4189975;28;5810;-61
2022/04/03 09:33:28;;;;;;;;;;;;;;;2.24;57.56;96857.19;4192014;28;5834;-62
2022/04/03 09:35:32;;;;;;;;;;;;;;;2.06;57.74;96851.06;4189170;28;5863;-62
2022/04/03 09:37:34;;;;;;;;;;;;;;;2.03;57.18;96852.13;4184981;28;5902;-62
2022/04/03 09:39:35;;;;;;;;;;;;;;;2.31;57.39;96862.69;4177267;28;5895;-62
2022/04/03 09:42:00;;;;;;;;;;;;;;;2.50;56.90;96869.66;4189754;28;5806;-62
2022/04/03 09:44:15;;;;;;;;;;;;;;;2.38;56.39;96855.09;4182566;28;5811;-62
2022/04/03 09:46:17;;;;;;;;;;;;;;;2.49;56.69;96865.38;4180231;28;5809;-62
2022/04/03 09:48:23;;;;;;;;;;;;;;;2.55;56.71;96863.03;4182469;28;5953;-61
2022/04/03 09:50:25;;;;;;;;;;;;;;;2.60;56.38;96857.38;4184705;28;5725;-61
2022/04/03 09:52:45;;;;;;;;;;;;;;;2.72;56.08;96863.25;4180579;28;5732;-61
2022/04/03 09:54:47;;;;;;;;;;;;;;;2.70;55.63;96846.91;4182721;28;5715;-62
2022/04/03 09:56:48;;;;;;;;;;;;;;;2.50;56.52;96861.84;4185018;28;5800;-61
2022/04/03 09:58:50;;;;;;;;;;;;;;;2.73;56.31;96867.53;4183477;28;5724;-62
2022/04/03 10:00:52;;;;;;;;;;;;;;;2.85;55.80;96861.16;4187804;28;5860;-61
2022/04/03 10:02:59;;;;;;;;;;;;;;;3.03;55.50;96859.44;4174718;28;5786;-61
2022/04/03 10:05:01;;;;;;;;;;;;;;;2.87;55.33;96860.06;4180402;28;5823;-61
2022/04/03 10:07:04;;;;;;;;;;;;;;;3.03;54.65;96871.66;4183447;28;5733;-61
2022/04/03 10:09:11;;;;;;;;;;;;;;;2.96;54.82;96868.00;4174739;28;5715;-60
2022/04/03 10:11:14;;;;;;;;;;;;;;;2.95;55.16;96866.34;4185597;28;5727;-60
2022/04/03 10:13:16;;;;;;;;;;;;;;;2.89;55.51;96868.56;4184691;28;5770;-60
2022/04/03 10:15:18;;;;;;;;;;;;;;;3.06;54.95;96871.38;4170418;28;6635;-60
2022/04/03 10:17:21;;;;;;;;;;;;;;;3.07;55.10;96867.81;4177643;28;5732;-61
2022/04/03 10:19:23;;;;;;;;;;;;;;;3.17;54.99;96863.34;4191928;28;5786;-60
2022/04/03 10:21:34;;;;;;;;;;;;;;;3.21;54.59;96869.94;4177585;28;5724;-62
2022/04/03 10:23:39;;;;;;;;;;;;;;;3.39;53.93;96870.78;4175928;28;5819;-63
2022/04/03 10:25:45;;;;;;;;;;;;;;;3.52;53.63;96877.47;4182373;28;5719;-61
2022/04/03 10:27:50;;;;;;;;;;;;;;;3.26;52.97;96878.16;4176864;28;5736;-61
2022/04/03 10:29:57;;;;;;;;;;;;;;;3.45;52.62;96872.00;4175659;28;5867;-62
2022/04/03 10:32:04;;;;;;;;;;;;;;;3.60;52.46;96875.75;4174837;28;5998;-62
2022/04/03 10:34:06;;;;;;;;;;;;;;;3.65;52.71;96872.72;4184434;28;5715;-62
2022/04/03 10:36:12;;;;;;;;;;;;;;;3.31;52.75;96886.41;4183220;28;6400;-63
2022/04/03 10:38:14;;;;;;;;;;;;;;;3.47;52.26;96881.34;4177960;28;5760;-61
2022/04/03 10:40:17;;;;;;;;;;;;;;;3.53;52.71;96881.72;4181237;28;6745;-62
2022/04/03 10:42:25;;;;;;;;;;;;;;;3.59;52.62;96879.34;4184114;28;5711;-62
2022/04/03 10:44:27;;;;;;;;;;;;;;;3.75;52.54;96876.09;4183533;28;5940;-66
2022/04/03 10:46:31;;;;;;;;;;;;;;;3.94;53.18;96883.75;4183112;28;5799;-66
2022/04/03 10:48:33;;;;;;;;;;;;;;;3.89;53.35;96886.03;4180862;28;5802;-68
2022/04/03 10:51:00;;;;;;;;;;;;;;;3.64;52.17;96881.53;4183822;28;5736;-69
2022/04/03 10:53:01;;;;;;;;;;;;;;;3.58;52.62;96882.94;4176940;28;5721;-65
2022/04/03 10:55:22;;;;;;;;;;;;;;;3.50;53.13;96878.41;4178797;28;5719;-68
2022/04/03 10:57:48;;;;;;;;;;;;;;;3.43;53.58;96885.22;4181452;28;5926;-67
2022/04/03 11:00:09;;;;;;;;;;;;;;;3.68;54.11;96882.88;4176655;28;5715;-64
2022/04/03 11:02:14;;;;;;;;;;;;;;;3.81;54.12;96885.94;4180835;28;5934;-64
2022/04/03 11:04:16;;;;;;;;;;;;;;;3.77;53.81;96884.59;4179264;28;5893;-65
2022/04/03 11:06:19;;;;;;;;;;;;;;;3.72;53.06;96881.59;4183545;28;5716;-62
2022/04/03 11:08:42;;;;;;;;;;;;;;;3.63;53.76;96885.94;4185265;28;5732;-77
2022/04/03 11:10:52;;;;;;;;;;;;;;;3.28;54.97;96880.63;4178605;28;5783;-65
2022/04/03 11:12:55;;;;;;;;;;;;;;;3.58;54.77;96879.50;4175514;28;5774;-64
2022/04/03 11:14:57;;;;;;;;;;;;;;;3.66;54.23;96879.59;4182136;28;5747;-63
2022/04/03 11:17:00;;;;;;;;;;;;;;;3.62;53.61;96881.66;4179112;28;5814;-64
2022/04/03 11:19:04;;;;;;;;;;;;;;;3.53;54.05;96873.91;4181997;28;5731;-64
2022/04/03 11:21:22;;;;;;;;;;;;;;;3.67;53.79;96881.22;4183343;28;5707;-63
2022/04/03 11:23:24;;;;;;;;;;;;;;;3.94;53.93;96885.56;4183962;28;5833;-64
2022/04/03 11:25:25;;;;;;;;;;;;;;;4.09;52.78;96884.91;4183897;28;5703;-64
2022/04/03 11:27:28;;;;;;;;;;;;;;;4.06;52.71;96886.97;4183548;28;6421;-65
2022/04/03 11:29:29;;;;;;;;;;;;;;;3.83;51.19;96891.00;4182237;28;5112;-64
2022/04/03 11:31:33;;;;;;;;;;;;;;;3.90;50.59;96892.91;4183689;28;7739;-64
2022/04/03 11:33:36;;;;;;;;;;;;;;;4.02;51.56;96885.66;4183411;28;5771;-64
2022/04/03 11:35:40;;;;;;;;;;;;;;;3.89;49.90;96886.03;4183449;28;5715;-64
2022/04/03 11:37:45;;;;;;;;;;;;;;;3.75;50.69;96879.53;4183400;28;6389;-64
2022/04/03 11:39:47;;;;;;;;;;;;;;;3.41;51.32;96881.13;4165850;28;5744;-64
2022/04/03 11:41:51;;;;;;;;;;;;;;;3.49;51.69;96887.22;4182364;28;5826;-64
2022/04/03 11:44:04;;;;;;;;;;;;;;;3.68;52.24;96882.88;4183189;28;5719;-64
2022/04/03 11:46:07;;;;;;;;;;;;;;;3.84;52.52;96884.81;4182374;28;5707;-63
2022/04/03 11:48:20;;;;;;;;;;;;;;;4.14;52.44;96883.63;4183499;28;5903;-64
2022/04/03 11:50:21;;;;;;;;;;;;;;;4.27;51.54;96890.09;4198439;28;5678;-64
2022/04/03 11:52:23;;;;;;;;;;;;;;;4.30;50.87;96886.34;4183482;28;5812;-64
2022/04/03 11:54:25;;;;;;;;;;;;;;;4.11;51.60;96889.16;4183350;28;5775;-64
2022/04/03 11:56:31;;;;;;;;;;;;;;;3.93;51.95;96891.75;4198889;28;5699;-64
2022/04/03 11:58:36;;;;;;;;;;;;;;;4.03;51.38;96888.09;4183432;28;5752;-63
2022/04/03 12:00:45;;;;;;;;;;;;;;;3.88;51.24;96889.59;4183362;28;5860;-63
2022/04/03 12:02:47;;;;;;;;;;;;;;;3.95;52.16;96893.25;4182039;28;5771;-64
2022/04/03 12:04:49;;;;;;;;;;;;;;;4.00;52.15;96892.81;4181756;28;5819;-64
2022/04/03 12:07:00;;;;;;;;;;;;;;;4.03;52.32;96895.13;4183314;28;6378;-64
2022/04/03 12:09:09;;;;;;;;;;;;;;;3.79;52.39;96887.88;4182898;28;5802;-63
2022/04/03 12:11:24;;;;;;;;;;;;;;;3.67;52.39;96892.50;4182047;28;5723;-64
2022/04/03 12:13:26;;;;;;;;;;;;;;;3.81;53.22;96891.16;4183230;28;5881;-64
2022/04/03 12:15:32;;;;;;;;;;;;;;;3.94;53.07;96898.63;4181763;28;5708;-63
2022/04/03 12:17:55;;;;;;;;;;;;;;;3.96;53.20;96894.91;4183142;28;5743;-63
2022/04/03 12:19:57;;;;;;;;;;;;;;;4.19;52.76;96890.06;4182626;28;5729;-65
2022/04/03 12:22:04;;;;;;;;;;;;;;;3.98;51.39;96898.22;4181448;28;6536;-63
2022/04/03 12:24:14;;;;;;;;;;;;;;;4.13;51.66;96879.38;4182944;28;5735;-64
2022/04/03 12:26:16;;;;;;;;;;;;;;;4.24;51.70;96893.03;4167162;28;6406;-64
2022/04/03 12:28:21;;;;;;;;;;;;;;;4.26;51.99;96887.63;4182907;28;5704;-64
2022/04/03 12:30:23;;;;;;;;;;;;;;;4.27;52.18;96894.50;4181258;28;5738;-67
2022/04/03 12:32:25;;;;;;;;;;;;;;;4.08;51.82;96887.69;4181562;28;5774;-64
2022/04/03 12:34:28;;;;;;;;;;;;;;;4.23;52.71;96882.72;4181104;28;5715;-64
2022/04/03 12:36:47;;;;;;;;;;;;;;;4.30;52.30;96884.59;4183042;28;5711;-64
2022/04/03 12:38:49;;;;;;;;;;;;;;;4.05;52.19;96888.78;4182631;28;5822;-64
2022/04/03 12:40:55;;;;;;;;;;;;;;;3.91;52.52;96891.91;4181771;28;5780;-64
2022/04/03 12:43:02;;;;;;;;;;;;;;;3.88;52.84;96891.41;4182935;28;5861;-65
2022/04/03 12:45:21;;;;;;;;;;;;;;;3.91;52.87;96883.25;4183016;28;5720;-67
2022/04/03 12:47:34;;;;;;;;;;;;;;;4.09;53.09;96877.06;4182831;28;5727;-64
2022/04/03 12:49:35;;;;;;;;;;;;;;;4.25;52.72;96878.16;4182634;28;5723;-64
2022/04/03 12:51:48;;;;;;;;;;;;;;;4.45;52.36;96887.47;4181415;28;5715;-66
2022/04/03 12:53:51;;;;;;;;;;;;;;;4.35;52.94;96884.13;4182983;28;6401;-64
2022/04/03 12:55:53;;;;;;;;;;;;;;;4.04;53.60;96879.28;4182656;28;5696;-64
2022/04/03 13:00:17;;;;;;;;;;;;;;;4.18;53.52;96887.56;4182875;28;5790;-63
2022/04/03 13:02:18;;;;;;;;;;;;;;;4.37;53.49;96877.75;4182706;28;5810;-64
2022/04/03 13:04:30;;;;;;;;;;;;;;;4.60;52.07;96882.50;4180959;28;5755;-64
2022/04/03 13:06:35;;;;;;;;;;;;;;;4.56;51.83;96887.22;4181534;28;5071;-64
2022/04/03 13:08:39;;;;;;;;;;;;;;;4.54;51.70;96891.81;4182463;28;5833;-64
2022/04/03 13:10:55;;;;;;;;;;;;;;;4.26;52.44;96888.47;4182647;28;5720;-65
2022/04/03 13:12:56;;;;;;;;;;;;;;;4.45;50.85;96882.25;4182838;28;5711;-63
2022/04/03 13:14:59;;;;;;;;;;;;;;;4.52;51.19;96887.66;4182762;28;5708;-64
2022/04/03 13:17:04;;;;;;;;;;;;;;;4.53;51.19;96882.31;4181428;28;5068;-64
2022/04/03 13:19:07;;;;;;;;;;;;;;;4.61;50.88;96879.72;4182515;28;7770;-63
2022/04/03 13:21:18;;;;;;;;;;;;;;;4.60;50.89;96880.69;4184480;28;5807;-65
2022/04/03 13:23:22;;;;;;;;;;;;;;;4.66;50.69;96874.84;4185555;28;5716;-64
2022/04/03 13:25:24;;;;;;;;;;;;;;;4.50;51.39;96890.44;4185761;28;5719;-64
2022/04/03 13:27:25;;;;;;;;;;;;;;;4.52;51.69;96891.09;4184107;28;5779;-64
2022/04/03 13:29:27;;;;;;;;;;;;;;;4.73;51.82;96882.09;4185197;28;5720;-64
2022/04/03 13:31:30;;;;;;;;;;;;;;;4.58;51.56;96887.06;4181234;28;5841;-63
2022/04/03 13:33:32;;;;;;;;;;;;;;;4.69;51.40;96878.97;4169901;28;5731;-64
2022/04/03 13:35:37;;;;;;;;;;;;;;;4.81;50.76;96890.00;4185193;28;5762;-66
2022/04/03 13:37:39;;;;;;;;;;;;;;;4.34;51.29;96879.88;4183479;28;5896;-64
2022/04/03 13:39:41;;;;;;;;;;;;;;;4.41;51.25;96880.88;4168855;28;5737;-64
2022/04/03 13:41:43;;;;;;;;;;;;;;;4.27;50.90;96881.44;4180963;28;5723;-64
2022/04/03 13:43:45;;;;;;;;;;;;;;;3.99;50.69;96881.53;4185335;28;5719;-68
2022/04/03 13:46:02;;;;;;;;;;;;;;;3.96;50.79;96881.81;4185123;28;6404;-64
2022/04/03 13:48:04;;;;;;;;;;;;;;;3.98;51.41;96884.31;4184026;28;5718;-64
2022/04/03 13:50:06;;;;;;;;;;;;;;;3.93;51.51;96876.06;4185183;28;5786;-64
2022/04/03 13:52:09;;;;;;;;;;;;;;;4.19;50.89;96886.59;4185131;28;5711;-64
2022/04/03 13:54:11;;;;;;;;;;;;;;;4.18;50.17;96877.09;4185336;28;5731;-64
2022/04/03 13:56:13;;;;;;;;;;;;;;;4.20;50.65;96885.66;4185228;28;5803;-64
2022/04/03 13:58:17;;;;;;;;;;;;;;;4.32;51.02;96884.44;4184050;28;5730;-64
2022/04/03 14:00:20;;;;;;;;;;;;;;;4.36;50.54;96876.13;4183892;28;5898;-64
2022/04/03 14:02:22;;;;;;;;;;;;;;;4.26;51.13;96875.38;4182556;28;5715;-64
2022/04/03 14:04:24;;;;;;;;;;;;;;;4.45;50.62;96871.75;4169826;28;5846;-63
2022/04/03 14:06:26;;;;;;;;;;;;;;;4.60;50.71;96866.78;4177426;28;5814;-64
2022/04/03 14:08:29;;;;;;;;;;;;;;;4.57;50.63;96865.31;4173997;28;6080;-64
2022/04/03 14:10:31;;;;;;;;;;;;;;;4.18;51.12;96864.84;4184577;28;6412;-64
2022/04/03 14:12:33;;;;;;;;;;;;;;;4.02;51.88;96865.53;4183737;28;5723;-65
2022/04/03 14:14:34;;;;;;;;;;;;;;;3.95;52.91;96868.88;4182092;28;5727;-63
2022/04/03 14:16:36;;;;;;;;;;;;;;;4.33;52.62;96873.00;4182826;28;5798;-64
2022/04/03 14:18:38;;;;;;;;;;;;;;;4.55;51.11;96884.75;4182419;28;5715;-64
2022/04/03 14:20:40;;;;;;;;;;;;;;;4.12;50.63;96872.50;4176666;28;5715;-64
2022/04/03 14:22:42;;;;;;;;;;;;;;;4.01;51.15;96881.38;4181908;28;5894;-64
2022/04/03 14:24:43;;;;;;;;;;;;;;;3.92;51.91;96870.03;4178133;28;5947;-63
2022/04/03 14:26:45;;;;;;;;;;;;;;;3.91;52.30;96872.78;4183462;28;5823;-63
2022/04/03 14:28:47;;;;;;;;;;;;;;;4.04;52.39;96879.28;4181604;28;5779;-63
2022/04/03 14:30:49;;;;;;;;;;;;;;;4.14;52.74;96873.16;4178685;28;5822;-64
2022/04/03 14:32:51;;;;;;;;;;;;;;;3.96;53.75;96875.75;4180438;28;5715;-64
2022/04/03 14:34:53;;;;;;;;;;;;;;;4.16;52.15;96876.44;4184338;28;5871;-63
2022/04/03 14:36:54;;;;;;;;;;;;;;;4.30;51.95;96873.28;4179434;28;6413;-63
2022/04/03 14:38:56;;;;;;;;;;;;;;;4.29;52.16;96877.69;4173892;28;5795;-63
2022/04/03 14:40:58;;;;;;;;;;;;;;;4.41;52.01;96875.66;4182411;28;5875;-62
2022/04/03 14:43:00;;;;;;;;;;;;;;;4.44;51.99;96875.38;4182658;28;5754;-64
2022/04/03 14:45:03;;;;;;;;;;;;;;;4.49;52.35;96877.50;4182321;28;5824;-62
2022/04/03 14:47:06;;;;;;;;;;;;;;;4.36;52.90;96878.72;4175515;28;5744;-63
2022/04/03 14:49:08;;;;;;;;;;;;;;;3.96;53.73;96876.59;4167879;28;5724;-62
2022/04/03 14:51:14;;;;;;;;;;;;;;;4.10;53.62;96883.09;4177781;28;5902;-62
2022/04/03 14:53:18;;;;;;;;;;;;;;;4.38;53.50;96881.19;4172695;28;5850;-62
2022/04/03 14:55:21;;;;;;;;;;;;;;;4.55;52.95;96872.50;4177502;28;5787;-63
2022/04/03 14:57:23;;;;;;;;;;;;;;;4.45;52.68;96877.00;4181755;28;5704;-63
2022/04/03 14:59:24;;;;;;;;;;;;;;;4.11;52.93;96873.47;4174357;28;5729;-62
2022/04/03 15:01:26;;;;;;;;;;;;;;;4.25;52.99;96880.78;4178156;28;5794;-62
2022/04/03 15:03:28;;;;;;;;;;;;;;;4.24;52.71;96881.75;4175588;28;5707;-63
2022/04/03 15:05:31;;;;;;;;;;;;;;;4.23;52.68;96887.94;4181554;28;5782;-63
2022/04/03 15:07:33;;;;;;;;;;;;;;;4.08;52.67;96872.78;4181422;28;5858;-63
2022/04/03 15:09:35;;;;;;;;;;;;;;;4.33;52.36;96880.84;4172495;28;5708;-63
2022/04/03 15:11:37;;;;;;;;;;;;;;;4.38;52.07;96876.78;4180636;28;5127;-63
2022/04/03 15:13:38;;;;;;;;;;;;;;;4.25;52.06;96886.00;4179105;28;5817;-62
2022/04/03 15:15:40;;;;;;;;;;;;;;;4.07;52.39;96889.44;4179879;28;5823;-63
2022/04/03 15:17:41;;;;;;;;;;;;;;;3.91;53.34;96898.94;4180060;28;5837;-63
2022/04/03 15:19:43;;;;;;;;;;;;;;;4.03;53.75;96893.34;4161457;28;5829;-63
2022/04/03 15:21:45;;;;;;;;;;;;;;;4.10;53.31;96888.34;4175591;28;5849;-63
2022/04/03 15:23:46;;;;;;;;;;;;;;;4.23;52.87;96891.38;4175656;28;5811;-63
2022/04/03 15:25:48;;;;;;;;;;;;;;;4.22;52.61;96894.16;4173749;28;5938;-61
2022/04/03 15:27:50;;;;;;;;;;;;;;;4.25;52.93;96892.06;4179545;28;5826;-60
2022/04/03 15:30:00;;;;;;;;;;;;;;;3.95;52.96;96892.44;4179881;28;5920;-61
2022/04/03 15:32:03;;;;;;;;;;;;;;;3.86;53.43;96894.16;4174176;28;5911;-65
2022/04/03 15:34:05;;;;;;;;;;;;;;;4.02;53.53;96877.78;4179137;28;5727;-71
2022/04/03 15:36:06;;;;;;;;;;;;;;;3.85;54.01;96887.31;4179019;28;5826;-63
2022/04/03 15:38:09;;;;;;;;;;;;;;;4.00;53.85;96884.97;4176633;28;5823;-64
2022/04/03 15:40:11;;;;;;;;;;;;;;;4.06;53.40;96894.81;4177082;28;5826;-64
2022/04/03 15:42:13;;;;;;;;;;;;;;;3.77;53.97;96887.22;4179447;28;5944;-61
2022/04/03 15:44:14;;;;;;;;;;;;;;;3.89;53.27;96890.44;4179386;28;5817;-58
2022/04/03 15:46:17;;;;;;;;;;;;;;;3.61;53.77;96881.81;4175258;28;5794;-62
2022/04/03 15:48:19;;;;;;;;;;;;;;;3.57;53.90;96894.34;4171022;28;5819;-65
2022/04/03 15:50:21;;;;;;;;;;;;;;;3.42;54.13;96894.03;4179553;28;5802;-65
2022/04/03 15:52:22;;;;;;;;;;;;;;;3.76;53.98;96896.84;4173648;28;5985;-65
2022/04/03 15:54:24;;;;;;;;;;;;;;;3.81;53.41;96891.16;4179062;28;5716;-67
2022/04/03 15:56:28;;;;;;;;;;;;;;;3.95;52.90;96895.88;4183823;28;5830;-64
2022/04/03 15:58:30;;;;;;;;;;;;;;;3.90;53.16;96900.75;4182386;28;5985;-65
2022/04/03 16:00:32;;;;;;;;;;;;;;;3.77;53.70;96905.53;4182220;28;5826;-61
2022/04/03 16:02:34;;;;;;;;;;;;;;;3.79;53.86;96896.53;4182043;28;5827;-61
2022/04/03 16:04:35;;;;;;;;;;;;;;;3.76;54.28;96896.03;4179254;28;5850;-61
2022/04/03 16:06:37;;;;;;;;;;;;;;;3.91;54.31;96899.75;4177704;28;5954;-64
2022/04/03 16:08:39;;;;;;;;;;;;;;;3.98;54.16;96895.59;4193675;28;5262;-66
2022/04/03 16:10:41;;;;;;;;;;;;;;;4.05;54.30;96894.00;4183239;28;7378;-67
2022/04/03 16:12:42;;;;;;;;;;;;;;;4.03;53.66;96895.94;4176096;28;5861;-64
2022/04/03 16:14:44;;;;;;;;;;;;;;;3.75;53.83;96902.22;4178615;28;5818;-63
2022/04/03 16:16:46;;;;;;;;;;;;;;;3.56;54.62;96905.78;4174836;28;5825;-66
2022/04/03 16:18:48;;;;;;;;;;;;;;;3.54;54.40;96901.69;4179558;28;5861;-63
2022/04/03 16:20:50;;;;;;;;;;;;;;;3.64;54.37;96903.25;4180686;28;5834;-61
2022/04/03 16:22:52;;;;;;;;;;;;;;;3.43;55.08;96908.75;4185111;28;5877;-62
2022/04/03 16:24:54;;;;;;;;;;;;;;;3.46;55.07;96911.06;4179124;28;5889;-65
2022/04/03 16:26:56;;;;;;;;;;;;;;;3.60;55.14;96914.97;4185928;28;5797;-63
2022/04/03 16:28:57;;;;;;;;;;;;;;;3.48;55.68;96909.13;4191148;28;5844;-63
2022/04/03 16:31:00;;;;;;;;;;;;;;;3.37;56.23;96916.34;4179602;28;6122;-63
2022/04/03 16:33:02;;;;;;;;;;;;;;;3.52;56.18;96911.47;4181045;28;5850;-64
2022/04/03 16:35:05;;;;;;;;;;;;;;;3.46;56.26;96918.91;4171988;28;5867;-63
2022/04/03 16:37:07;;;;;;;;;;;;;;;3.60;55.81;96917.56;4173455;28;5818;-63
2022/04/03 16:39:09;;;;;;;;;;;;;;;3.43;56.50;96913.97;4175434;28;5839;-63
2022/04/03 16:41:12;;;;;;;;;;;;;;;3.39;56.94;96920.44;4175128;28;5937;-63
2022/04/03 16:43:14;;;;;;;;;;;;;;;3.54;57.02;96910.34;4175492;28;5951;-61
2022/04/03 16:45:16;;;;;;;;;;;;;;;3.21;57.72;96914.34;4173529;28;5806;-64
2022/04/03 16:47:26;;;;;;;;;;;;;;;3.24;58.02;96911.44;4175571;28;5851;-64
2022/04/03 16:49:27;;;;;;;;;;;;;;;3.23;57.96;96912.41;4178125;28;5858;-62
2022/04/03 16:51:30;;;;;;;;;;;;;;;3.29;57.50;96922.31;4175757;28;5813;-63
2022/04/03 16:53:31;;;;;;;;;;;;;;;3.15;57.41;96922.75;4173822;28;5874;-62
2022/04/03 16:55:33;;;;;;;;;;;;;;;3.22;57.50;96919.44;4178599;28;6007;-62
2022/04/03 16:57:37;;;;;;;;;;;;;;;3.20;57.69;96918.75;4183475;28;5806;-61
2022/04/03 16:59:38;;;;;;;;;;;;;;;3.40;57.37;96924.72;4189452;28;5895;-62
2022/04/03 17:01:40;;;;;;;;;;;;;;;3.54;57.30;96919.97;4177745;28;5901;-66
2022/04/03 17:03:42;;;;;;;;;;;;;;;3.48;57.59;96922.19;4181503;28;5821;-60
2022/04/03 17:05:43;;;;;;;;;;;;;;;3.38;57.79;96918.78;4182263;28;5802;-60
2022/04/03 17:07:45;;;;;;;;;;;;;;;3.34;57.80;96927.09;4183620;28;5828;-62
2022/04/03 17:09:48;;;;;;;;;;;;;;;3.28;57.99;96922.41;4181645;28;5826;-62
2022/04/03 17:11:50;;;;;;;;;;;;;;;3.35;57.80;96924.31;4180897;28;6413;-61
2022/04/03 17:13:52;;;;;;;;;;;;;;;3.13;58.41;96924.69;4178836;28;5818;-61
2022/04/03 17:15:54;;;;;;;;;;;;;;;3.12;57.98;96923.03;4177184;28;5823;-62
2022/04/03 17:17:55;;;;;;;;;;;;;;;3.11;58.09;96934.47;4186094;28;5706;-62
2022/04/03 17:19:57;;;;;;;;;;;;;;;3.27;57.77;96937.28;4190452;28;5689;-62
2022/04/03 17:21:59;;;;;;;;;;;;;;;3.14;58.02;96942.00;4180617;28;5848;-61
2022/04/03 17:24:01;;;;;;;;;;;;;;;3.30;57.79;96931.78;4181250;28;5716;-61
2022/04/03 17:26:03;;;;;;;;;;;;;;;3.45;57.54;96938.16;4184341;28;5690;-61
2022/04/03 17:28:05;;;;;;;;;;;;;;;3.31;57.86;96941.25;4182938;28;5838;-60
2022/04/03 17:30:08;;;;;;;;;;;;;;;3.15;58.60;96936.63;4192883;28;5765;-59
2022/04/03 17:32:14;;;;;;;;;;;;;;;3.24;58.54;96931.53;4184336;28;5739;-58
2022/04/03 17:34:16;;;;;;;;;;;;;;;3.32;58.26;96942.91;4188985;28;5778;-59
2022/04/03 17:36:18;;;;;;;;;;;;;;;3.09;58.89;96954.69;4193673;28;5700;-58
2022/04/03 17:38:20;;;;;;;;;;;;;;;3.21;58.62;96949.13;4185139;28;5823;-59
2022/04/03 17:40:21;;;;;;;;;;;;;;;2.91;59.46;96942.34;4184836;28;5715;-58
2022/04/03 17:42:28;;;;;;;;;;;;;;;3.05;59.63;96948.91;4185303;28;5874;-59
2022/04/03 17:44:32;;;;;;;;;;;;;;;2.97;59.32;96953.22;4182809;28;5877;-58
2022/04/03 17:46:34;;;;;;;;;;;;;;;2.91;59.66;96954.59;4180619;28;5236;-59
2022/04/03 17:48:36;;;;;;;;;;;;;;;3.07;59.22;96961.84;4181712;28;5723;-58
2022/04/03 17:50:41;;;;;;;;;;;;;;;3.15;58.63;96964.56;4182874;28;5969;-62
2022/04/03 17:52:43;;;;;;;;;;;;;;;3.17;58.45;96962.59;4178781;28;5957;-62
2022/04/03 17:54:45;;;;;;;;;;;;;;;2.88;59.18;96958.31;4181889;28;5818;-62
2022/04/03 17:56:47;;;;;;;;;;;;;;;2.75;59.48;96967.41;4180416;28;5765;-63
2022/04/03 17:58:48;;;;;;;;;;;;;;;2.63;59.79;96953.69;4182907;28;5771;-64
2022/04/03 18:00:50;;;;;;;;;;;;;;;2.71;59.99;96959.03;4178931;28;5132;-66
2022/04/03 18:02:57;;;;;;;;;;;;;;;2.91;59.50;96968.47;4177546;28;5874;-62
2022/04/03 18:04:58;;;;;;;;;;;;;;;2.93;59.56;96976.97;4178192;28;6173;-62
2022/04/03 18:07:01;;;;;;;;;;;;;;;3.01;59.42;96972.84;4180413;28;5719;-67
2022/04/03 18:09:04;;;;;;;;;;;;;;;3.02;59.43;96964.88;4183092;28;5786;-67
2022/04/03 18:11:12;;;;;;;;;;;;;;;2.98;59.88;96973.97;4183592;28;5790;-66
2022/04/03 18:13:14;;;;;;;;;;;;;;;2.97;60.05;96972.31;4182246;28;6007;-69
2022/04/03 18:15:16;;;;;;;;;;;;;;;2.99;59.98;96970.38;4176487;28;5764;-63
2022/04/03 18:17:18;;;;;;;;;;;;;;;2.93;60.46;96963.91;4176235;28;5869;-62
2022/04/03 18:19:20;;;;;;;;;;;;;;;2.87;60.87;96972.34;4178718;28;5842;-66
2022/04/03 18:21:22;;;;;;;;;;;;;;;3.02;60.72;96974.50;4175741;28;5865;-66
2022/04/03 18:23:25;;;;;;;;;;;;;;;2.85;61.25;96976.88;4178847;28;5801;-66
2022/04/03 18:25:27;;;;;;;;;;;;;;;2.77;61.74;96981.16;4177969;28;5932;-65
2022/04/03 18:27:28;;;;;;;;;;;;;;;2.68;61.94;96977.59;4178029;28;5838;-67
2022/04/03 18:29:30;;;;;;;;;;;;;;;2.81;61.75;96985.94;4175092;28;5748;-63
2022/04/03 18:31:32;;;;;;;;;;;;;;;2.90;61.47;96972.03;4176184;28;5867;-65
2022/04/03 18:33:34;;;;;;;;;;;;;;;2.89;61.64;96980.03;4178138;28;5842;-66
2022/04/03 18:35:38;;;;;;;;;;;;;;;2.94;61.50;96983.03;4176262;28;5748;-67
2022/04/03 18:37:40;;;;;;;;;;;;;;;2.87;62.04;96985.38;4180135;28;5878;-68
2022/04/03 18:39:44;;;;;;;;;;;;;;;2.56;62.94;96994.34;4179624;28;5707;-71
2022/04/03 18:41:46;;;;;;;;;;;;;;;2.63;62.88;96988.44;4182332;28;5955;-68
2022/04/03 18:43:48;;;;;;;;;;;;;;;2.63;62.83;96995.47;4182500;28;5779;-72
2022/04/03 18:45:50;;;;;;;;;;;;;;;2.60;62.76;96995.72;4181507;28;5854;-63
2022/04/03 18:47:52;;;;;;;;;;;;;;;2.60;63.11;96995.72;4179296;28;5738;-62
2022/04/03 18:49:53;;;;;;;;;;;;;;;2.61;62.93;96994.78;4176570;28;5866;-67
2022/04/03 18:51:55;;;;;;;;;;;;;;;2.61;62.98;96995.59;4179084;28;5715;-62
2022/04/03 18:53:57;;;;;;;;;;;;;;;2.58;63.19;96992.44;4175543;28;5929;-63
2022/04/03 18:55:58;;;;;;;;;;;;;;;2.62;63.04;96999.03;4173653;28;5753;-67
2022/04/03 18:58:01;;;;;;;;;;;;;;;2.55;63.14;96997.94;4177765;28;5806;-67
2022/04/03 19:00:04;;;;;;;;;;;;;;;2.51;63.29;97000.00;4178210;28;5856;-66
2022/04/03 19:02:06;;;;;;;;;;;;;;;2.55;63.04;97003.97;4183545;28;5712;-67
2022/04/03 19:04:08;;;;;;;;;;;;;;;2.43;63.36;97001.63;4182892;28;5092;-68
2022/04/03 19:06:13;;;;;;;;;;;;;;;2.59;62.83;97000.13;4182069;28;7783;-68
2022/04/03 19:08:15;;;;;;;;;;;;;;;2.57;62.67;97001.22;4181834;28;6012;-68
2022/04/03 19:10:17;;;;;;;;;;;;;;;2.50;62.85;96995.75;4183204;28;5719;-68
2022/04/03 19:12:18;;;;;;;;;;;;;;;2.27;63.36;97004.81;4183709;28;5743;-68
2022/04/03 19:14:22;;;;;;;;;;;;;;;2.34;63.40;97008.50;4179682;28;5958;-68
2022/04/03 19:16:24;;;;;;;;;;;;;;;2.37;63.14;97000.38;4183368;28;5817;-68
2022/04/03 19:18:26;;;;;;;;;;;;;;;2.44;62.91;97016.34;4174521;28;5109;-68
2022/04/03 19:20:28;;;;;;;;;;;;;;;2.19;63.73;97002.88;4178364;28;5960;-67
2022/04/03 19:22:30;;;;;;;;;;;;;;;2.33;63.42;97015.50;4182838;28;5983;-67
2022/04/03 19:24:32;;;;;;;;;;;;;;;2.38;63.11;97020.34;4182301;28;5732;-68
2022/04/03 19:26:34;;;;;;;;;;;;;;;2.45;62.73;97008.38;4190755;28;5706;-62
2022/04/03 19:28:35;;;;;;;;;;;;;;;2.41;63.02;97014.00;4182925;28;5723;-68
2022/04/03 19:30:41;;;;;;;;;;;;;;;2.41;62.94;97016.63;4194963;28;5710;-63
2022/04/03 19:32:44;;;;;;;;;;;;;;;2.33;63.29;97015.50;4187543;28;5838;-62
2022/04/03 19:34:46;;;;;;;;;;;;;;;2.46;62.94;97006.59;4192798;28;5705;-70
2022/04/03 19:36:48;;;;;;;;;;;;;;;2.45;62.94;97023.19;4187735;28;5848;-66
2022/04/03 19:38:49;;;;;;;;;;;;;;;2.42;62.92;97008.66;4183129;28;5858;-70
2022/04/03 19:40:51;;;;;;;;;;;;;;;2.41;63.30;97021.84;4180883;28;5787;-68
2022/04/03 19:42:53;;;;;;;;;;;;;;;2.46;63.12;97017.03;4183447;28;5792;-70
2022/04/03 19:44:55;;;;;;;;;;;;;;;2.18;63.98;97016.88;4179504;28;5870;-67
2022/04/03 19:46:57;;;;;;;;;;;;;;;2.27;64.01;97017.84;4180506;28;5732;-67
2022/04/03 19:48:59;;;;;;;;;;;;;;;2.39;63.80;97018.53;4180509;28;5857;-69